sensor_id;sensor_type;location;lat;lon;timestamp;P1;P2;P0
20157;PMS5003;10239;56.820;24.416;2023-07-29T00:01:09;3.25;2.75;2.00
20157;PMS5003;10239;56.820;24.416;2023-07-29T00:03:37;5.75;5.75;3.00
20157;PMS5003;10239;56.820;24.416;2023-07-29T00:06:05;8.50;7.00;4.00
20157;PMS5003;10239;56.820;24.416;2023-07-29T00:08:32;6.00;6.00;3.00
20157;PMS5003;10239;56.820;24.416;2023-07-29T00:11:00;8.25;8.25;3.75
20157;PMS5003;10239;56.820;24.416;2023-07-29T00:13:27;12.50;7.50;3.00
20157;PMS5003;10239;56.820;24.416;2023-07-29T00:15:55;10.25;8.00;4.00
20157;PMS5003;10239;56.820;24.416;2023-07-29T00:18:23;11.75;9.00;4.00
20157;PMS5003;10239;56.820;24.416;2023-07-29T00:20:50;4.25;4.25;3.75
20157;PMS5003;10239;56.820;24.416;2023-07-29T00:23:18;7.25;7.25;4.00
20157;PMS5003;10239;56.820;24.416;2023-07-29T00:25:46;4.75;4.75;1.75
20157;PMS5003;10239;56.820;24.416;2023-07-29T00:28:13;8.75;7.50;3.75
20157;PMS5003;10239;56.820;24.416;2023-07-29T00:30:43;9.50;9.00;4.00
20157;PMS5003;10239;56.820;24.416;2023-07-29T00:33:11;4.50;4.50;3.00
20157;PMS5003;10239;56.820;24.416;2023-07-29T00:35:39;6.75;6.75;3.75
20157;PMS5003;10239;56.820;24.416;2023-07-29T00:38:06;7.50;5.00;3.00
20157;PMS5003;10239;56.820;24.416;2023-07-29T00:40:35;8.25;8.25;3.25
20157;PMS5003;10239;56.820;24.416;2023-07-29T00:43:03;7.50;7.50;3.75
20157;PMS5003;10239;56.820;24.416;2023-07-29T00:45:30;8.25;8.25;4.25
20157;PMS5003;10239;56.820;24.416;2023-07-29T00:47:59;7.75;7.00;4.75
20157;PMS5003;10239;56.820;24.416;2023-07-29T00:50:29;6.00;4.25;2.50
20157;PMS5003;10239;56.820;24.416;2023-07-29T00:52:59;8.75;8.75;3.00
20157;PMS5003;10239;56.820;24.416;2023-07-29T00:55:27;9.00;7.00;4.00
20157;PMS5003;10239;56.820;24.416;2023-07-29T00:57:55;7.50;7.50;4.50
20157;PMS5003;10239;56.820;24.416;2023-07-29T01:00:25;10.50;9.75;5.75
20157;PMS5003;10239;56.820;24.416;2023-07-29T01:02:53;9.00;6.00;3.00
20157;PMS5003;10239;56.820;24.416;2023-07-29T01:05:22;6.50;6.50;3.50
20157;PMS5003;10239;56.820;24.416;2023-07-29T01:10:48;10.75;9.00;4.25
20157;PMS5003;10239;56.820;24.416;2023-07-29T01:13:44;8.00;8.00;4.00
20157;PMS5003;10239;56.820;24.416;2023-07-29T01:16:24;9.50;9.50;5.25
20157;PMS5003;10239;56.820;24.416;2023-07-29T01:19:25;8.50;8.00;4.00
20157;PMS5003;10239;56.820;24.416;2023-07-29T01:22:01;10.00;8.75;5.50
20157;PMS5003;10239;56.820;24.416;2023-07-29T01:24:31;7.50;7.50;4.00
20157;PMS5003;10239;56.820;24.416;2023-07-29T01:26:58;13.00;12.50;4.50
20157;PMS5003;10239;56.820;24.416;2023-07-29T01:29:28;7.75;7.75;3.50
20157;PMS5003;10239;56.820;24.416;2023-07-29T01:31:56;8.00;6.25;2.75
20157;PMS5003;10239;56.820;24.416;2023-07-29T01:34:30;12.75;8.50;4.00
20157;PMS5003;10239;56.820;24.416;2023-07-29T01:37:06;9.25;9.25;3.75
20157;PMS5003;10239;56.820;24.416;2023-07-29T01:39:39;3.00;3.00;0.50
20157;PMS5003;10239;56.820;24.416;2023-07-29T01:42:08;9.00;7.75;4.00
20157;PMS5003;10239;56.820;24.416;2023-07-29T01:44:36;11.75;10.25;5.25
20157;PMS5003;10239;56.820;24.416;2023-07-29T01:47:03;8.50;8.50;5.00
20157;PMS5003;10239;56.820;24.416;2023-07-29T01:49:33;7.75;7.75;4.00
20157;PMS5003;10239;56.820;24.416;2023-07-29T01:52:01;10.50;8.00;4.25
20157;PMS5003;10239;56.820;24.416;2023-07-29T01:54:29;9.25;8.75;5.00
20157;PMS5003;10239;56.820;24.416;2023-07-29T01:56:56;14.00;11.25;7.00
20157;PMS5003;10239;56.820;24.416;2023-07-29T01:59:24;8.50;8.00;4.00
20157;PMS5003;10239;56.820;24.416;2023-07-29T02:01:52;7.75;7.50;3.00
20157;PMS5003;10239;56.820;24.416;2023-07-29T02:04:19;11.00;11.00;6.25
20157;PMS5003;10239;56.820;24.416;2023-07-29T02:06:47;12.50;10.25;6.00
20157;PMS5003;10239;56.820;24.416;2023-07-29T02:09:14;6.75;6.75;4.00
20157;PMS5003;10239;56.820;24.416;2023-07-29T02:11:42;10.75;8.50;3.50
20157;PMS5003;10239;56.820;24.416;2023-07-29T02:14:10;7.00;5.75;3.00
20157;PMS5003;10239;56.820;24.416;2023-07-29T02:16:37;12.25;10.00;4.50
20157;PMS5003;10239;56.820;24.416;2023-07-29T02:19:06;16.67;11.33;4.00
20157;PMS5003;10239;56.820;24.416;2023-07-29T02:21:34;11.75;11.00;4.75
20157;PMS5003;10239;56.820;24.416;2023-07-29T02:24:02;8.50;8.00;4.25
20157;PMS5003;10239;56.820;24.416;2023-07-29T02:26:29;12.00;10.50;5.00
20157;PMS5003;10239;56.820;24.416;2023-07-29T02:28:57;9.75;9.00;5.25
20157;PMS5003;10239;56.820;24.416;2023-07-29T02:31:25;8.75;8.75;5.25
20157;PMS5003;10239;56.820;24.416;2023-07-29T02:33:53;7.00;6.25;2.25
20157;PMS5003;10239;56.820;24.416;2023-07-29T02:36:20;11.25;9.50;4.75
20157;PMS5003;10239;56.820;24.416;2023-07-29T02:38:48;7.25;4.50;2.75
20157;PMS5003;10239;56.820;24.416;2023-07-29T02:41:16;9.00;9.00;6.50
20157;PMS5003;10239;56.820;24.416;2023-07-29T02:43:47;6.75;6.75;3.00
20157;PMS5003;10239;56.820;24.416;2023-07-29T02:46:16;13.50;9.00;4.50
20157;PMS5003;10239;56.820;24.416;2023-07-29T02:48:50;8.75;8.25;4.00
20157;PMS5003;10239;56.820;24.416;2023-07-29T02:51:18;10.00;10.00;6.25
20157;PMS5003;10239;56.820;24.416;2023-07-29T02:53:49;11.00;9.25;6.25
20157;PMS5003;10239;56.820;24.416;2023-07-29T02:56:21;8.50;8.50;5.75
20157;PMS5003;10239;56.820;24.416;2023-07-29T02:58:48;10.75;9.50;6.25
20157;PMS5003;10239;56.820;24.416;2023-07-29T03:01:18;14.00;10.50;6.00
20157;PMS5003;10239;56.820;24.416;2023-07-29T03:03:49;9.25;7.50;4.75
20157;PMS5003;10239;56.820;24.416;2023-07-29T03:06:17;12.50;5.50;2.00
20157;PMS5003;10239;56.820;24.416;2023-07-29T03:08:44;8.00;8.00;4.00
20157;PMS5003;10239;56.820;24.416;2023-07-29T03:11:16;8.00;8.00;3.00
20157;PMS5003;10239;56.820;24.416;2023-07-29T03:13:44;7.75;7.50;3.00
20157;PMS5003;10239;56.820;24.416;2023-07-29T03:16:18;10.75;8.25;3.50
20157;PMS5003;10239;56.820;24.416;2023-07-29T03:18:53;8.25;7.25;3.50
20157;PMS5003;10239;56.820;24.416;2023-07-29T03:21:27;15.75;9.75;5.00
20157;PMS5003;10239;56.820;24.416;2023-07-29T03:24:02;7.75;7.00;4.00
20157;PMS5003;10239;56.820;24.416;2023-07-29T03:26:29;9.50;8.25;4.00
20157;PMS5003;10239;56.820;24.416;2023-07-29T03:29:04;9.25;9.25;6.00
20157;PMS5003;10239;56.820;24.416;2023-07-29T03:31:32;14.25;11.75;6.00
20157;PMS5003;10239;56.820;24.416;2023-07-29T03:33:59;12.00;10.75;5.25
20157;PMS5003;10239;56.820;24.416;2023-07-29T03:36:31;9.00;9.00;6.25
20157;PMS5003;10239;56.820;24.416;2023-07-29T03:39:04;13.25;12.75;5.75
20157;PMS5003;10239;56.820;24.416;2023-07-29T03:41:31;10.25;10.25;6.00
20157;PMS5003;10239;56.820;24.416;2023-07-29T03:44:01;14.75;10.00;6.75
20157;PMS5003;10239;56.820;24.416;2023-07-29T03:46:28;9.00;9.00;4.00
20157;PMS5003;10239;56.820;24.416;2023-07-29T03:49:01;9.50;9.50;4.50
20157;PMS5003;10239;56.820;24.416;2023-07-29T03:51:34;12.75;9.50;4.25
20157;PMS5003;10239;56.820;24.416;2023-07-29T03:54:02;11.75;8.50;4.00
20157;PMS5003;10239;56.820;24.416;2023-07-29T03:56:36;8.25;8.25;4.00
20157;PMS5003;10239;56.820;24.416;2023-07-29T03:59:07;6.75;6.75;3.25
20157;PMS5003;10239;56.820;24.416;2023-07-29T04:01:35;7.75;7.75;4.00
20157;PMS5003;10239;56.820;24.416;2023-07-29T04:04:06;8.00;8.00;4.75
20157;PMS5003;10239;56.820;24.416;2023-07-29T04:06:34;15.00;9.75;4.00
20157;PMS5003;10239;56.820;24.416;2023-07-29T04:09:03;11.00;9.25;5.00
20157;PMS5003;10239;56.820;24.416;2023-07-29T04:11:30;10.00;8.75;5.00
20157;PMS5003;10239;56.820;24.416;2023-07-29T04:13:58;7.00;4.25;3.25
20157;PMS5003;10239;56.820;24.416;2023-07-29T04:16:26;11.00;9.00;5.50
20157;PMS5003;10239;56.820;24.416;2023-07-29T04:18:55;14.25;9.25;4.00
20157;PMS5003;10239;56.820;24.416;2023-07-29T04:21:23;7.00;7.00;4.50
20157;PMS5003;10239;56.820;24.416;2023-07-29T04:23:51;10.00;9.50;5.00
20157;PMS5003;10239;56.820;24.416;2023-07-29T04:26:18;9.50;8.75;5.00
20157;PMS5003;10239;56.820;24.416;2023-07-29T04:28:46;8.75;6.50;4.50
20157;PMS5003;10239;56.820;24.416;2023-07-29T04:31:14;10.00;10.00;5.50
20157;PMS5003;10239;56.820;24.416;2023-07-29T04:33:41;10.50;10.50;5.25
20157;PMS5003;10239;56.820;24.416;2023-07-29T04:36:10;10.25;9.50;4.00
20157;PMS5003;10239;56.820;24.416;2023-07-29T04:38:43;10.50;10.50;5.00
20157;PMS5003;10239;56.820;24.416;2023-07-29T04:41:10;8.00;5.50;4.00
20157;PMS5003;10239;56.820;24.416;2023-07-29T04:43:38;9.00;7.00;5.75
20157;PMS5003;10239;56.820;24.416;2023-07-29T04:46:07;10.25;7.75;5.75
20157;PMS5003;10239;56.820;24.416;2023-07-29T04:48:38;10.00;8.50;4.00
20157;PMS5003;10239;56.820;24.416;2023-07-29T04:51:05;12.00;10.25;5.75
20157;PMS5003;10239;56.820;24.416;2023-07-29T04:53:33;7.50;5.75;4.00
20157;PMS5003;10239;56.820;24.416;2023-07-29T04:56:03;9.00;9.00;5.00
20157;PMS5003;10239;56.820;24.416;2023-07-29T04:58:31;14.00;11.00;5.50
20157;PMS5003;10239;56.820;24.416;2023-07-29T05:01:02;8.75;8.00;4.75
20157;PMS5003;10239;56.820;24.416;2023-07-29T05:03:30;8.00;6.33;4.00
20157;PMS5003;10239;56.820;24.416;2023-07-29T05:05:58;7.50;5.75;3.00
20157;PMS5003;10239;56.820;24.416;2023-07-29T05:08:27;7.50;7.50;4.00
20157;PMS5003;10239;56.820;24.416;2023-07-29T05:10:56;8.25;8.25;4.25
20157;PMS5003;10239;56.820;24.416;2023-07-29T05:13:24;8.25;8.25;5.50
20157;PMS5003;10239;56.820;24.416;2023-07-29T05:15:52;9.75;8.75;4.75
20157;PMS5003;10239;56.820;24.416;2023-07-29T05:18:19;13.50;11.75;5.50
20157;PMS5003;10239;56.820;24.416;2023-07-29T05:20:48;11.00;7.25;4.75
20157;PMS5003;10239;56.820;24.416;2023-07-29T05:23:16;14.00;12.50;5.50
20157;PMS5003;10239;56.820;24.416;2023-07-29T05:25:43;9.50;7.00;5.00
20157;PMS5003;10239;56.820;24.416;2023-07-29T05:28:11;7.00;7.00;4.00
20157;PMS5003;10239;56.820;24.416;2023-07-29T05:30:39;8.00;6.00;3.00
20157;PMS5003;10239;56.820;24.416;2023-07-29T05:33:07;7.25;7.25;5.25
20157;PMS5003;10239;56.820;24.416;2023-07-29T05:35:38;10.50;8.25;6.00
20157;PMS5003;10239;56.820;24.416;2023-07-29T05:38:06;10.25;9.00;5.00
20157;PMS5003;10239;56.820;24.416;2023-07-29T05:40:35;9.25;9.00;5.00
20157;PMS5003;10239;56.820;24.416;2023-07-29T05:43:03;10.00;8.25;6.00
20157;PMS5003;10239;56.820;24.416;2023-07-29T05:45:31;7.25;4.25;3.25
20157;PMS5003;10239;56.820;24.416;2023-07-29T05:47:59;8.00;8.00;4.25
20157;PMS5003;10239;56.820;24.416;2023-07-29T05:50:27;7.50;7.50;4.75
20157;PMS5003;10239;56.820;24.416;2023-07-29T05:52:55;10.00;10.00;5.25
20157;PMS5003;10239;56.820;24.416;2023-07-29T05:55:23;8.67;8.00;5.33
20157;PMS5003;10239;56.820;24.416;2023-07-29T05:57:51;7.75;5.50;4.00
20157;PMS5003;10239;56.820;24.416;2023-07-29T06:00:18;8.25;7.50;4.50
20157;PMS5003;10239;56.820;24.416;2023-07-29T06:02:46;9.00;9.00;5.50
20157;PMS5003;10239;56.820;24.416;2023-07-29T06:05:16;6.50;6.00;4.00
20157;PMS5003;10239;56.820;24.416;2023-07-29T06:07:44;10.00;8.25;4.50
20157;PMS5003;10239;56.820;24.416;2023-07-29T06:10:12;8.50;8.50;5.00
20157;PMS5003;10239;56.820;24.416;2023-07-29T06:12:44;14.25;11.75;7.00
20157;PMS5003;10239;56.820;24.416;2023-07-29T06:15:13;9.00;9.00;6.00
20157;PMS5003;10239;56.820;24.416;2023-07-29T06:17:41;11.40;10.00;6.60
20157;PMS5003;10239;56.820;24.416;2023-07-29T06:20:10;8.00;7.80;5.00
20157;PMS5003;10239;56.820;24.416;2023-07-29T06:22:38;9.20;9.20;5.00
20157;PMS5003;10239;56.820;24.416;2023-07-29T06:25:05;7.40;7.40;5.00
20157;PMS5003;10239;56.820;24.416;2023-07-29T06:27:33;10.00;10.00;6.00
20157;PMS5003;10239;56.820;24.416;2023-07-29T06:30:01;9.60;9.60;6.20
20157;PMS5003;10239;56.820;24.416;2023-07-29T06:32:28;8.60;8.60;5.20
20157;PMS5003;10239;56.820;24.416;2023-07-29T06:34:56;7.80;7.80;4.40
20157;PMS5003;10239;56.820;24.416;2023-07-29T06:37:24;9.60;8.20;5.20
20157;PMS5003;10239;56.820;24.416;2023-07-29T06:39:51;12.00;10.75;6.50
20157;PMS5003;10239;56.820;24.416;2023-07-29T06:42:19;7.00;6.00;4.25
20157;PMS5003;10239;56.820;24.416;2023-07-29T06:44:47;8.25;8.25;5.00
20157;PMS5003;10239;56.820;24.416;2023-07-29T06:47:14;8.50;8.50;5.00
20157;PMS5003;10239;56.820;24.416;2023-07-29T06:49:42;10.25;8.25;4.75
20157;PMS5003;10239;56.820;24.416;2023-07-29T06:52:10;13.80;11.80;5.80
20157;PMS5003;10239;56.820;24.416;2023-07-29T06:54:37;12.80;11.40;6.20
20157;PMS5003;10239;56.820;24.416;2023-07-29T06:57:05;10.60;8.80;6.00
20157;PMS5003;10239;56.820;24.416;2023-07-29T06:59:33;10.40;10.40;6.60
20157;PMS5003;10239;56.820;24.416;2023-07-29T07:02:00;11.60;8.60;5.40
20157;PMS5003;10239;56.820;24.416;2023-07-29T07:04:28;9.60;9.60;4.40
20157;PMS5003;10239;56.820;24.416;2023-07-29T07:06:56;8.00;8.00;6.00
20157;PMS5003;10239;56.820;24.416;2023-07-29T07:09:24;8.60;8.60;6.00
20157;PMS5003;10239;56.820;24.416;2023-07-29T07:11:51;10.20;10.20;6.00
20157;PMS5003;10239;56.820;24.416;2023-07-29T07:14:19;7.60;7.60;5.00
20157;PMS5003;10239;56.820;24.416;2023-07-29T07:16:47;11.40;11.40;6.60
20157;PMS5003;10239;56.820;24.416;2023-07-29T07:19:14;9.00;9.00;5.00
20157;PMS5003;10239;56.820;24.416;2023-07-29T07:21:42;7.80;7.60;4.20
20157;PMS5003;10239;56.820;24.416;2023-07-29T07:24:10;8.60;8.60;5.20
20157;PMS5003;10239;56.820;24.416;2023-07-29T07:26:38;7.00;7.00;3.40
20157;PMS5003;10239;56.820;24.416;2023-07-29T07:29:05;8.60;8.60;6.00
20157;PMS5003;10239;56.820;24.416;2023-07-29T07:31:33;10.40;8.40;5.20
20157;PMS5003;10239;56.820;24.416;2023-07-29T07:34:02;10.40;8.40;6.00
20157;PMS5003;10239;56.820;24.416;2023-07-29T07:36:29;7.60;6.80;4.00
20157;PMS5003;10239;56.820;24.416;2023-07-29T07:38:57;8.80;7.00;3.80
20157;PMS5003;10239;56.820;24.416;2023-07-29T07:41:25;7.40;7.40;4.20
20157;PMS5003;10239;56.820;24.416;2023-07-29T07:43:53;8.20;6.00;4.40
20157;PMS5003;10239;56.820;24.416;2023-07-29T07:46:20;8.00;7.20;4.40
20157;PMS5003;10239;56.820;24.416;2023-07-29T07:48:48;5.60;5.60;3.40
20157;PMS5003;10239;56.820;24.416;2023-07-29T07:51:15;9.00;5.80;3.00
20157;PMS5003;10239;56.820;24.416;2023-07-29T07:53:43;7.20;5.80;2.20
20157;PMS5003;10239;56.820;24.416;2023-07-29T07:56:11;6.60;6.60;3.20
20157;PMS5003;10239;56.820;24.416;2023-07-29T07:58:39;3.60;2.80;2.00
20157;PMS5003;10239;56.820;24.416;2023-07-29T08:01:07;4.40;4.40;2.60
20157;PMS5003;10239;56.820;24.416;2023-07-29T08:03:36;7.40;5.00;3.80
20157;PMS5003;10239;56.820;24.416;2023-07-29T08:06:04;7.00;5.60;3.60
20157;PMS5003;10239;56.820;24.416;2023-07-29T08:08:36;4.60;4.00;1.80
20157;PMS5003;10239;56.820;24.416;2023-07-29T08:11:04;8.80;6.00;4.00
20157;PMS5003;10239;56.820;24.416;2023-07-29T08:13:31;6.60;6.00;3.20
20157;PMS5003;10239;56.820;24.416;2023-07-29T08:15:59;5.40;5.40;3.00
20157;PMS5003;10239;56.820;24.416;2023-07-29T08:18:27;7.80;6.20;3.00
20157;PMS5003;10239;56.820;24.416;2023-07-29T08:23:25;8.80;7.80;4.60
20157;PMS5003;10239;56.820;24.416;2023-07-29T08:25:57;0.00;0.00;0.00
20157;PMS5003;10239;56.820;24.416;2023-07-29T08:28:29;4.80;4.80;2.00
20157;PMS5003;10239;56.820;24.416;2023-07-29T08:30:57;7.80;6.60;4.00
20157;PMS5003;10239;56.820;24.416;2023-07-29T08:33:26;6.80;6.80;3.00
20157;PMS5003;10239;56.820;24.416;2023-07-29T08:35:54;6.80;6.80;4.20
20157;PMS5003;10239;56.820;24.416;2023-07-29T08:38:22;8.00;6.20;4.00
20157;PMS5003;10239;56.820;24.416;2023-07-29T08:40:57;8.00;6.00;4.20
20157;PMS5003;10239;56.820;24.416;2023-07-29T08:43:28;6.20;6.00;3.60
20157;PMS5003;10239;56.820;24.416;2023-07-29T08:45:58;4.60;4.60;3.80
20157;PMS5003;10239;56.820;24.416;2023-07-29T08:48:32;6.60;6.60;4.80
20157;PMS5003;10239;56.820;24.416;2023-07-29T08:51:06;6.20;6.20;4.00
20157;PMS5003;10239;56.820;24.416;2023-07-29T08:53:38;6.20;6.20;3.80
20157;PMS5003;10239;56.820;24.416;2023-07-29T08:56:07;11.40;8.80;5.00
20157;PMS5003;10239;56.820;24.416;2023-07-29T08:58:35;7.00;7.00;3.20
20157;PMS5003;10239;56.820;24.416;2023-07-29T09:01:03;8.00;8.00;5.00
20157;PMS5003;10239;56.820;24.416;2023-07-29T09:03:31;8.00;7.60;4.40
20157;PMS5003;10239;56.820;24.416;2023-07-29T09:05:59;10.00;7.80;4.00
20157;PMS5003;10239;56.820;24.416;2023-07-29T09:08:29;6.20;6.20;4.00
20157;PMS5003;10239;56.820;24.416;2023-07-29T09:10:57;6.00;5.00;3.80
20157;PMS5003;10239;56.820;24.416;2023-07-29T09:13:24;7.60;7.40;4.00
20157;PMS5003;10239;56.820;24.416;2023-07-29T09:15:56;4.60;4.60;2.40
20157;PMS5003;10239;56.820;24.416;2023-07-29T09:18:25;6.20;6.20;3.80
20157;PMS5003;10239;56.820;24.416;2023-07-29T09:20:54;7.00;5.20;3.40
20157;PMS5003;10239;56.820;24.416;2023-07-29T09:23:27;8.00;5.80;3.80
20157;PMS5003;10239;56.820;24.416;2023-07-29T09:26:02;8.00;6.40;3.20
20157;PMS5003;10239;56.820;24.416;2023-07-29T09:28:34;5.20;5.20;3.20
20157;PMS5003;10239;56.820;24.416;2023-07-29T09:31:06;3.80;2.80;1.60
20157;PMS5003;10239;56.820;24.416;2023-07-29T09:33:46;2.60;2.60;0.00
20157;PMS5003;10239;56.820;24.416;2023-07-29T09:36:13;4.80;4.80;3.00
20157;PMS5003;10239;56.820;24.416;2023-07-29T09:38:41;4.60;4.60;1.60
20157;PMS5003;10239;56.820;24.416;2023-07-29T09:41:12;3.40;3.20;1.80
20157;PMS5003;10239;56.820;24.416;2023-07-29T09:43:42;5.80;4.60;2.80
20157;PMS5003;10239;56.820;24.416;2023-07-29T09:46:10;2.00;2.00;2.00
20157;PMS5003;10239;56.820;24.416;2023-07-29T09:48:38;4.40;4.40;2.00
20157;PMS5003;10239;56.820;24.416;2023-07-29T09:51:12;6.00;6.00;3.00
20157;PMS5003;10239;56.820;24.416;2023-07-29T09:53:42;4.40;4.40;3.40
20157;PMS5003;10239;56.820;24.416;2023-07-29T09:56:14;3.40;3.40;2.00
20157;PMS5003;10239;56.820;24.416;2023-07-29T09:58:43;5.40;4.20;2.00
20157;PMS5003;10239;56.820;24.416;2023-07-29T10:01:13;3.80;3.80;1.00
20157;PMS5003;10239;56.820;24.416;2023-07-29T10:03:41;3.00;3.00;1.40
20157;PMS5003;10239;56.820;24.416;2023-07-29T10:06:11;5.00;3.20;1.20
20157;PMS5003;10239;56.820;24.416;2023-07-29T10:08:42;4.00;4.00;2.20
20157;PMS5003;10239;56.820;24.416;2023-07-29T10:11:10;4.40;3.00;1.60
20157;PMS5003;10239;56.820;24.416;2023-07-29T10:13:38;3.00;3.00;2.00
20157;PMS5003;10239;56.820;24.416;2023-07-29T10:16:07;3.60;3.60;2.00
20157;PMS5003;10239;56.820;24.416;2023-07-29T10:18:35;2.40;2.40;1.20
20157;PMS5003;10239;56.820;24.416;2023-07-29T10:21:03;3.60;3.60;2.40
20157;PMS5003;10239;56.820;24.416;2023-07-29T10:23:36;2.80;2.80;1.00
20157;PMS5003;10239;56.820;24.416;2023-07-29T10:26:10;2.60;2.60;1.00
20157;PMS5003;10239;56.820;24.416;2023-07-29T10:28:42;3.80;3.00;2.00
20157;PMS5003;10239;56.820;24.416;2023-07-29T10:31:16;2.60;2.60;1.40
20157;PMS5003;10239;56.820;24.416;2023-07-29T10:33:45;3.00;3.00;2.00
20157;PMS5003;10239;56.820;24.416;2023-07-29T10:36:13;2.00;2.00;1.00
20157;PMS5003;10239;56.820;24.416;2023-07-29T10:38:42;7.80;7.40;4.20
20157;PMS5003;10239;56.820;24.416;2023-07-29T10:41:10;7.20;6.00;2.00
20157;PMS5003;10239;56.820;24.416;2023-07-29T10:43:37;2.20;2.20;1.00
20157;PMS5003;10239;56.820;24.416;2023-07-29T10:46:18;2.00;2.00;1.00
20157;PMS5003;10239;56.820;24.416;2023-07-29T10:51:36;2.80;2.80;1.00
20157;PMS5003;10239;56.820;24.416;2023-07-29T10:54:11;3.20;3.20;2.00
20157;PMS5003;10239;56.820;24.416;2023-07-29T10:56:41;3.60;3.60;2.00
20157;PMS5003;10239;56.820;24.416;2023-07-29T11:01:54;3.80;3.80;2.00
20157;PMS5003;10239;56.820;24.416;2023-07-29T11:12:41;2.60;2.60;1.00
20157;PMS5003;10239;56.820;24.416;2023-07-29T11:17:39;3.00;2.00;1.00
20157;PMS5003;10239;56.820;24.416;2023-07-29T11:20:12;1.00;1.00;0.80
20157;PMS5003;10239;56.820;24.416;2023-07-29T11:22:40;1.60;1.60;1.00
20157;PMS5003;10239;56.820;24.416;2023-07-29T11:25:09;1.00;1.00;0.00
20157;PMS5003;10239;56.820;24.416;2023-07-29T11:27:39;1.00;1.00;1.00
20157;PMS5003;10239;56.820;24.416;2023-07-29T11:30:08;3.00;2.00;1.00
20157;PMS5003;10239;56.820;24.416;2023-07-29T11:32:38;1.00;1.00;1.00
20157;PMS5003;10239;56.820;24.416;2023-07-29T11:35:10;2.00;2.00;1.00
20157;PMS5003;10239;56.820;24.416;2023-07-29T11:37:44;0.60;0.60;0.00
20157;PMS5003;10239;56.820;24.416;2023-07-29T11:40:23;0.80;0.80;0.00
20157;PMS5003;10239;56.820;24.416;2023-07-29T11:42:52;1.60;1.60;0.00
20157;PMS5003;10239;56.820;24.416;2023-07-29T11:45:20;2.60;1.00;0.80
20157;PMS5003;10239;56.820;24.416;2023-07-29T11:47:58;1.40;1.40;0.20
20157;PMS5003;10239;56.820;24.416;2023-07-29T11:50:27;1.60;1.60;1.00
20157;PMS5003;10239;56.820;24.416;2023-07-29T11:52:55;3.60;2.00;1.00
20157;PMS5003;10239;56.820;24.416;2023-07-29T11:55:23;1.00;1.00;0.80
20157;PMS5003;10239;56.820;24.416;2023-07-29T11:57:51;1.40;1.40;1.00
20157;PMS5003;10239;56.820;24.416;2023-07-29T12:00:19;2.60;1.40;0.40
20157;PMS5003;10239;56.820;24.416;2023-07-29T12:02:48;1.00;1.00;0.20
20157;PMS5003;10239;56.820;24.416;2023-07-29T12:05:16;2.00;1.00;0.00
20157;PMS5003;10239;56.820;24.416;2023-07-29T12:07:48;2.00;2.00;1.00
20157;PMS5003;10239;56.820;24.416;2023-07-29T12:10:16;2.00;2.00;1.00
20157;PMS5003;10239;56.820;24.416;2023-07-29T12:12:49;0.40;0.40;0.00
20157;PMS5003;10239;56.820;24.416;2023-07-29T12:15:27;2.80;1.00;1.00
20157;PMS5003;10239;56.820;24.416;2023-07-29T12:17:56;0.40;0.40;0.00
20157;PMS5003;10239;56.820;24.416;2023-07-29T12:20:28;1.00;1.00;0.00
20157;PMS5003;10239;56.820;24.416;2023-07-29T12:22:58;1.40;1.00;0.40
20157;PMS5003;10239;56.820;24.416;2023-07-29T12:25:32;3.00;3.00;1.00
20157;PMS5003;10239;56.820;24.416;2023-07-29T12:28:06;1.80;1.80;0.60
20157;PMS5003;10239;56.820;24.416;2023-07-29T12:30:34;1.00;1.00;1.00
20157;PMS5003;10239;56.820;24.416;2023-07-29T12:33:09;2.00;2.00;0.20
20157;PMS5003;10239;56.820;24.416;2023-07-29T12:35:37;2.60;1.00;0.20
20157;PMS5003;10239;56.820;24.416;2023-07-29T12:38:05;1.00;1.00;0.00
20157;PMS5003;10239;56.820;24.416;2023-07-29T12:40:37;0.40;0.40;0.00
20157;PMS5003;10239;56.820;24.416;2023-07-29T12:43:05;3.00;2.00;0.80
20157;PMS5003;10239;56.820;24.416;2023-07-29T12:45:36;1.60;1.00;0.40
20157;PMS5003;10239;56.820;24.416;2023-07-29T12:48:07;1.00;1.00;0.20
20157;PMS5003;10239;56.820;24.416;2023-07-29T12:50:36;0.80;0.80;0.00
20157;PMS5003;10239;56.820;24.416;2023-07-29T12:53:05;2.60;1.00;1.00
20157;PMS5003;10239;56.820;24.416;2023-07-29T12:55:34;2.00;2.00;0.00
20157;PMS5003;10239;56.820;24.416;2023-07-29T12:58:02;1.00;1.00;0.20
20157;PMS5003;10239;56.820;24.416;2023-07-29T13:00:30;0.00;0.00;0.00
20157;PMS5003;10239;56.820;24.416;2023-07-29T13:02:58;1.00;1.00;0.00
20157;PMS5003;10239;56.820;24.416;2023-07-29T13:05:26;0.80;0.80;0.00
20157;PMS5003;10239;56.820;24.416;2023-07-29T13:07:53;1.00;1.00;0.00
20157;PMS5003;10239;56.820;24.416;2023-07-29T13:10:21;3.80;1.20;1.00
20157;PMS5003;10239;56.820;24.416;2023-07-29T13:12:48;1.00;1.00;0.00
20157;PMS5003;10239;56.820;24.416;2023-07-29T13:15:17;1.60;1.60;0.80
20157;PMS5003;10239;56.820;24.416;2023-07-29T13:17:45;1.00;1.00;0.20
20157;PMS5003;10239;56.820;24.416;2023-07-29T13:20:13;1.00;1.00;1.00
20157;PMS5003;10239;56.820;24.416;2023-07-29T13:22:40;1.00;1.00;0.00
20157;PMS5003;10239;56.820;24.416;2023-07-29T13:25:08;1.60;1.60;1.00
20157;PMS5003;10239;56.820;24.416;2023-07-29T13:27:35;1.00;1.00;0.00
20157;PMS5003;10239;56.820;24.416;2023-07-29T13:30:03;1.20;1.20;0.80
20157;PMS5003;10239;56.820;24.416;2023-07-29T13:32:31;1.00;1.00;1.00
20157;PMS5003;10239;56.820;24.416;2023-07-29T13:34:59;3.40;0.60;0.20
20157;PMS5003;10239;56.820;24.416;2023-07-29T13:37:27;2.00;0.20;0.00
20157;PMS5003;10239;56.820;24.416;2023-07-29T13:39:54;1.60;1.00;0.00
20157;PMS5003;10239;56.820;24.416;2023-07-29T13:42:22;1.00;1.00;0.00
20157;PMS5003;10239;56.820;24.416;2023-07-29T13:44:49;1.00;1.00;0.20
20157;PMS5003;10239;56.820;24.416;2023-07-29T13:47:17;2.60;2.60;1.00
20157;PMS5003;10239;56.820;24.416;2023-07-29T13:49:45;1.00;1.00;1.00
20157;PMS5003;10239;56.820;24.416;2023-07-29T13:52:13;0.60;0.60;0.00
20157;PMS5003;10239;56.820;24.416;2023-07-29T13:54:41;4.00;2.20;1.00
20157;PMS5003;10239;56.820;24.416;2023-07-29T13:57:08;1.20;1.20;0.20
20157;PMS5003;10239;56.820;24.416;2023-07-29T13:59:37;1.00;1.00;1.00
20157;PMS5003;10239;56.820;24.416;2023-07-29T14:02:05;1.60;1.60;1.00
20157;PMS5003;10239;56.820;24.416;2023-07-29T14:04:33;1.00;1.00;1.00
20157;PMS5003;10239;56.820;24.416;2023-07-29T14:07:01;0.00;0.00;0.00
20157;PMS5003;10239;56.820;24.416;2023-07-29T14:09:29;3.00;1.00;0.00
20157;PMS5003;10239;56.820;24.416;2023-07-29T14:11:57;1.40;1.40;0.00
20157;PMS5003;10239;56.820;24.416;2023-07-29T14:14:24;1.80;1.80;1.00
20157;PMS5003;10239;56.820;24.416;2023-07-29T14:16:52;1.00;1.00;0.00
20157;PMS5003;10239;56.820;24.416;2023-07-29T14:19:19;2.80;2.40;1.00
20157;PMS5003;10239;56.820;24.416;2023-07-29T14:21:47;2.00;0.60;0.00
20157;PMS5003;10239;56.820;24.416;2023-07-29T14:24:15;0.40;0.40;0.00
20157;PMS5003;10239;56.820;24.416;2023-07-29T14:26:43;2.00;2.00;1.00
20157;PMS5003;10239;56.820;24.416;2023-07-29T14:29:10;1.80;1.80;1.00
20157;PMS5003;10239;56.820;24.416;2023-07-29T14:31:38;5.20;4.40;3.80
20157;PMS5003;10239;56.820;24.416;2023-07-29T14:34:06;1.00;1.00;0.80
20157;PMS5003;10239;56.820;24.416;2023-07-29T14:36:33;1.00;1.00;1.00
20157;PMS5003;10239;56.820;24.416;2023-07-29T14:39:02;3.00;1.40;1.00